Hadlyme, CT

3:15 AM EDT on October 24, 2014 (GMT -0400)
Hadlyme | Change Station
CLOSE
Current Station
Personal Weather Station
Location: East Haddam, CT
Elevation: 312 ft
Nearby Weather Stations

Elev 312 ft 41.44 °N, 72.38 °W | Updated 43 seconds ago

Overcast
Overcast
50.4 °F
Feels Like 50.4 °F
N
0.0
Wind Variable Wind from WNW
Gusts 3.0 mph

Today
High -- | Low -- °F
--% Chance of Precip.
Yesterday
High -- | Low -- °F
Precip. -- in
7:11 AM 5:55 PM
New Moon, 0% visible
Pressure 29.69 in
Visibility 10.0 miles
Clouds Mostly Cloudy 1100 ft
Dew Point 50 °F
Humidity 98%
Rainfall 0.00 in
Snow Depth Not available.
UV 0 out of 12
Pollen .10 out of 12
Air Quality Not available.
Flu Activity Sporadic
METAR KSNC 240635Z AUTO 35012G16KT 10SM BKN011 10/08 A2969 RMK AO2

More Conditions Fewer Conditions

Pressure 29.69 in
Visibility 10.0 miles
Clouds Mostly Cloudy 1100 ft
Dew Point 50 °F
Humidity 98%
Rainfall 0.00 in
Snow Depth Not available.
UV 0 out of 12
Pollen .10 out of 12
Air Quality Not available.
Flu Activity Sporadic
METAR KSNC 240635Z AUTO 35012G16KT 10SM BKN011 10/08 A2969 RMK AO2

More Conditions Fewer Conditions

10-Day Weather Forecast

Almanac

Astronomy

Oct. 24, 2014 Rise Set
Actual Time 7:11 AM EDT 5:55 PM EDT
Civil Twilight 6:43 AM EDT 6:23 PM EDT
Nautical Twilight 6:11 AM EDT 6:55 PM EDT
Astronomical Twilight 5:38 AM EDT 7:27 PM EDT
Moon 7:48 AM EDT 6:32 PM EDT
Length of Visible Light 11h 40m
Length of Day
10h 43m
Tomorrow will be 2m 34s shorter.
New Moon, 0% of the Moon is Illuminated
Today
New Moon
Oct 30
First Quarter
Nov 6
Full
Nov 14
Last Quarter
Nov 22
New

Today's Extremes

State Highs State Lows

Community

WunderPhotos

Upload Photos

1,764,510 photos uploaded!

WunderBlogs® & News

Nearby

Air Quality

  Air Quality AQ Index Pollutant
Friday Good
PM2.5

Snow Depth

Station Depth Elevation
No new snow has been reported.

Earthquake Activity

City Distance Mag. Time & Date
No recent earthquake activity has been reported nearby.
Minimum magnitude displayed is 2.5.

Coastal Water Temperatures

Place Temperature
New London, CT 61.0 °F
New Haven, CT 60.1 °F
Newport, RI 60.1 °F
Quonset Point, RI 59.0 °F
Conimicut Light, RI 60.1 °F
Providence, RI 59.0 °F

Nearby Weather Stations